Aérodrome :
LOGIN :

S'inscrire | Disclaimer

   EN    FR    IT 

 










Légende :    VFR   VFR Marginal   IFR   IFR Intensif   IFR Très Intensif
Visi : 
Plafond : 
>= 8 km
>= 3000ft
5 à 8 km
1000 à 3000 ft
1500m à 5 km
500 à 1000 ft
800 à 1500m
200 à 500 ft
< 800m
< 200 ft
Symboles :   Orages  Brouillard  Fortes neiges  Fortes précipitations  Vent > 20 kt
SIGMETs :   Divers  Orages  Givrage  Turbulence  Onde Orograph.  Cendres Volcan.







- Altitude de l'aérodrome : 194 ft
- Code IATA : LME
- Voir les cartes d'approche


LFRM - Le Mans

DERNIER METAR :
  • 102000Z AUTO 00000KT CAVOK 07/05 Q1029

METARs EXPIRÉS :
  • 101930Z AUTO VRB02KT CAVOK 08/06 Q1029
  • 101900Z AUTO VRB02KT CAVOK 07/06 Q1029 NOSIG
  • 101830Z AUTO VRB02KT CAVOK 08/06 Q1029 NOSIG
  • 101800Z AUTO VRB02KT 9999 FEW049 SCT100 09/06 Q1029 NOSIG
  • 101730Z AUTO VRB02KT CAVOK 09/06 Q1029 NOSIG

TAF TAF LFRM
Valide du 10 à 12h jusqu'au 11 à 12h UTC


101100Z 1012/1112 27005KT CAVOK
BECMG 1020/1022 VRB03KT
PROB40
TEMPO 1100/1109 3000 BR
PROB40
TEMPO 1101/1108 0800 FG VV///
Pas de NOTAMs connus pour ce terrain.



MET'MAP, la Météo Aéronautique d'un coup d'oeil ! - Copyright ORBIFLY Décembre 2007 - Disclaimer

ORBIFLY MET'MAP TEAM :

Programmation & Développement : Alexandra Zaïnal
Conception & Développement : Baudouin d'Aumeries
Co-Programmation & Développement : Marc-Olivier Méhu
Soutien technique & logistique : Manuel Goepfert

Contact : metmap@orbifly.com




SOURCES & CREDITS :

   NOAA